Latest Weather Observations for Hopetoun Airport

IDV60801

Issued at 10:02 am EST Tuesday 27 June 2017 (issued every 30 minutes, with the page automatically refreshed every 10 minutes)

About weather observations | Map of weather stations | Latest weather observations for VIC | Other Formats
Station Details ID: 077010 Name: HOPETOUN AIRPORT Lat: -35.72 Lon: 142.36 Height: 77.3 m
Data from the previous 72 hours. | See also: Recent months at Hopetoun Airport
Date/Time
EST
Temp
°C
App
Temp
°C
Dew
Point
°C
Rel
Hum
%
Delta-T
°C
Wind Press
QNH
hPa
Press
MSL
hPa
Rain since
9am
mm
Dir  Spd
km/h
Gust
km/h
Spd
kts
Gust
kts
27/10:00am 11.0 7.7 6.6 74 2.1 NNE 13 17 7 9 1025.7 1025.9 0.0
27/09:30am 10.6 8.1 6.7 77 1.8 NE 9 11 5 6 1025.5 1025.7 0.0
27/09:00am 9.8 6.9 6.7 81 1.4 NE 11 13 6 7 1025.2 1025.3 0.0
27/08:30am 8.7 6.7 7.0 89 0.8 NE 7 9 4 5 1025.1 1025.2 0.0
27/08:00am 8.2 6.3 6.7 90 0.7 NE 6 7 3 4 1025.1 1025.2 0.0
27/07:30am 8.0 6.1 6.5 90 0.7 ENE 6 6 3 3 1025.0 1025.1 0.0
27/07:00am 8.2 6.3 6.5 89 0.8 E 6 7 3 4 1024.8 1024.9 0.0
27/06:30am 8.2 6.1 6.5 89 0.8 E 7 7 4 4 1024.7 1024.8 0.0
27/06:00am 8.2 7.4 6.5 89 0.8 CALM 0 2 0 1 1024.8 1024.9 0.0
27/05:30am 8.1 6.2 6.6 90 0.7 ENE 6 7 3 4 1024.8 1024.9 0.0
27/05:00am 8.2 7.0 6.5 89 0.8 ENE 2 2 1 1 1024.9 1025.0 0.0
27/04:30am 8.2 6.7 6.7 90 0.7 ENE 4 6 2 3 1025.0 1025.1 0.0
27/04:00am 8.2 6.3 6.7 90 0.7 NE 6 6 3 3 1025.1 1025.2 0.0
27/03:30am 8.2 7.0 6.5 89 0.8 NE 2 4 1 2 1025.2 1025.3 0.0
27/03:00am 8.5 7.8 6.8 89 0.8 CALM 0 0 0 0 1025.3 1025.4 0.0
27/02:30am 8.7 7.6 6.7 87 0.9 S 2 2 1 1 1025.3 1025.4 0.0
27/02:00am 8.7 7.9 6.5 86 1.0 CALM 0 0 0 0 1025.4 1025.5 0.0
27/01:30am 9.0 8.2 6.4 84 1.2 CALM 0 0 0 0 1025.4 1025.5 0.0
27/01:00am 9.2 7.9 6.1 81 1.4 NNW 2 2 1 1 1025.7 1025.9 0.0
27/12:30am 9.0 7.4 6.4 84 1.2 NNW 4 7 2 4 1026.0 1026.2 0.0
27/12:00am 8.8 6.8 6.4 85 1.1 NW 6 7 3 4 1025.9 1026.1 0.0
 
Date/Time
EST
Temp
°C
App
Temp
°C
Dew
Point
°C
Rel
Hum
%
Delta-T
°C
Wind Press
QNH
hPa
Press
MSL
hPa
Rain since
9am
mm
Dir  Spd
km/h
Gust
km/h
Spd
kts
Gust
kts
26/11:30pm 9.5 8.7 6.4 81 1.4 CALM 0 0 0 0 1026.1 1026.3 0.0
26/11:00pm 9.3 8.4 6.2 81 1.4 CALM 0 4 0 2 1026.4 1026.6 0.0
26/10:30pm 9.9 9.0 5.9 76 1.8 CALM 0 0 0 0 1026.4 1026.6 0.0
26/10:00pm 9.4 8.1 6.1 80 1.5 NW 2 2 1 1 1025.9 1026.1 0.0
26/09:30pm 9.7 7.7 6.4 80 1.5 SSE 6 7 3 4 1026.0 1026.2 0.0
26/09:00pm 10.2 9.3 6.0 75 1.9 CALM 0 2 0 1 1025.8 1026.0 0.0
26/08:30pm 9.5 7.9 6.4 81 1.4 NNE 4 7 2 4 1026.0 1026.2 0.0
26/08:00pm 9.6 8.8 6.3 80 1.5 CALM 0 0 0 0 1025.5 1025.7 0.0
26/07:30pm 9.6 8.4 6.3 80 1.5 SSE 2 4 1 2 1025.6 1025.8 0.0
26/07:00pm 10.0 9.1 6.0 76 1.8 CALM 0 0 0 0 1025.4 1025.5 0.0
26/06:30pm 9.8 8.1 6.0 77 1.8 NW 4 6 2 3 1025.3 1025.4 0.0
26/06:00pm 10.9 9.6 5.9 71 2.3 SSE 2 2 1 1 1025.2 1025.3 0.0
26/05:30pm 11.3 9.0 5.8 69 2.6 SW 7 7 4 4 1025.1 1025.2 0.0
26/05:00pm 12.1 9.5 5.9 66 2.9 SSW 9 13 5 7 1024.8 1024.9 0.0
26/04:30pm 12.7 10.4 5.8 63 3.3 WSW 7 9 4 5 1024.8 1024.9 0.0
26/04:00pm 12.8 11.2 6.2 64 3.1 S 4 6 2 3 1024.8 1024.9 0.0
26/03:30pm 12.8 10.5 5.9 63 3.3 SSW 7 9 4 5 1024.8 1024.9 0.0
26/03:00pm 13.1 10.5 6.0 62 3.4 S 9 13 5 7 1024.5 1024.6 0.0
26/02:30pm 13.2 10.3 6.3 63 3.3 S 11 17 6 9 1024.5 1024.6 0.0
26/02:00pm 13.2 10.1 5.4 59 3.6 SSW 11 15 6 8 1024.3 1024.4 0.0
26/01:30pm 12.8 8.8 5.0 59 3.6 SSW 15 20 8 11 1024.3 1024.4 0.0
26/01:00pm 14.1 10.8 4.7 53 4.4 SW 11 17 6 9 1024.4 1024.5 0.0
26/12:30pm 13.1 9.6 5.5 60 3.6 SSW 13 20 7 11 1024.8 1024.9 0.0
26/12:00pm 14.0 11.5 6.4 60 3.6 WSW 9 15 5 8 1025.1 1025.2 0.0
26/11:30am 12.7 11.1 8.0 73 2.3 NW 6 9 3 5 1025.5 1025.7 0.0
26/11:00am 10.9 10.1 9.8 93 0.6 N 4 6 2 3 1025.6 1025.8 0.0
26/10:30am 9.4 8.5 9.4 100 0.0 N 4 7 2 4 1025.7 1025.9 0.0
26/10:00am 7.0 6.3 7.0 100 0.0 CALM 0 0 0 0 1025.6 1025.8 0.0
26/09:30am 5.3 4.2 5.3 100 0.0 CALM 0 0 0 0 1025.3 1025.4 0.0
26/09:00am 4.7 2.8 4.7 100 0.0 NNW 4 4 2 2 1024.8 1024.9 0.2
26/08:30am 3.7 1.6 3.7 100 0.0 N 4 6 2 3 1024.5 1024.6 0.2
26/08:00am 2.8 0.5 2.8 100 0.0 NE 4 6 2 3 1024.1 1024.2 0.2
26/07:30am 2.1 0.4 2.0 99 0.0 CALM 0 4 0 2 1023.9 1024.0 0.2
26/07:00am 1.9 -0.9 1.8 99 0.0 W 6 7 3 4 1023.3 1023.4 0.2
26/06:30am 1.8 -1.1 1.7 99 0.0 WNW 6 6 3 3 1023.1 1023.2 0.0
26/06:00am 2.1 -1.3 2.0 99 0.0 SW 9 11 5 6 1022.5 1022.6 0.0
26/05:30am 1.6 -1.3 1.5 99 0.0 WSW 6 7 3 4 1022.2 1022.3 0.0
26/05:00am 1.9 -0.9 1.8 99 0.0 SW 6 7 3 4 1021.9 1022.0 0.0
26/04:30am 1.9 -1.1 1.8 99 0.0 WSW 7 9 4 5 1021.8 1021.9 0.0
26/04:00am 1.6 -1.5 1.5 99 0.0 WNW 7 9 4 5 1021.7 1021.8 0.0
26/03:30am 2.5 -0.2 2.4 99 0.0 W 6 6 3 3 1021.7 1021.8 0.0
26/03:00am 2.1 -0.9 2.0 99 0.0 W 7 9 4 5 1021.7 1021.8 0.0
26/02:30am 2.5 -0.2 2.4 99 0.0 WNW 6 7 3 4 1021.5 1021.6 0.0
26/02:00am 3.2 0.6 3.1 99 0.0 WNW 6 6 3 3 1021.4 1021.5 0.0
26/01:30am 2.7 -0.2 2.6 99 0.0 NW 7 7 4 4 1021.4 1021.5 0.0
26/01:00am 2.0 -1.4 1.9 99 0.0 NW 9 11 5 6 1021.2 1021.3 0.0
26/12:30am 1.6 -1.3 1.5 99 0.0 WSW 6 9 3 5 1021.3 1021.4 0.0
26/12:00am 3.6 0.5 3.5 99 0.0 WSW 9 11 5 6 1021.3 1021.4 0.0
 
Date/Time
EST
Temp
°C
App
Temp
°C
Dew
Point
°C
Rel
Hum
%
Delta-T
°C
Wind Press
QNH
hPa
Press
MSL
hPa
Rain since
9am
mm
Dir  Spd
km/h
Gust
km/h
Spd
kts
Gust
kts
25/11:30pm 3.9 0.8 3.8 99 0.0 WSW 9 9 5 5 1021.2 1021.3 0.0
25/11:00pm 4.7 2.2 4.6 99 0.0 WSW 7 9 4 5 1021.0 1021.1 0.0
25/10:30pm 4.6 2.1 4.5 99 0.0 WNW 7 7 4 4 1020.9 1021.0 0.0
25/10:00pm 4.8 2.3 4.5 98 0.1 W 7 9 4 5 1020.7 1020.8 0.0
25/09:30pm 5.3 2.1 4.9 97 0.2 W 11 13 6 7 1020.5 1020.6 0.0
25/09:00pm 6.6 3.6 6.0 96 0.3 W 11 13 6 7 1020.3 1020.4 0.0
25/08:30pm 7.4 4.2 6.7 95 0.3 WNW 13 15 7 8 1020.3 1020.4 0.0
25/08:00pm 6.8 3.3 5.6 92 0.5 WNW 13 15 7 8 1020.2 1020.3 0.0
25/07:30pm 7.5 4.1 6.0 90 0.7 WNW 13 15 7 8 1019.8 1019.9 0.0
25/07:00pm 7.6 4.5 5.4 86 1.0 WNW 11 13 6 7 1019.6 1019.7 0.0
25/06:30pm 9.3 6.4 6.6 83 1.3 W 11 15 6 8 1019.2 1019.3 0.0
25/06:00pm 9.8 7.2 6.3 79 1.6 WSW 9 11 5 6 1018.9 1019.0 0.0
25/05:30pm 12.7 9.0 6.5 66 3.0 WSW 15 20 8 11 1018.6 1018.7 0.0
25/05:00pm 13.2 9.9 6.3 63 3.3 WSW 13 20 7 11 1018.3 1018.4 0.0
25/04:30pm 14.4 11.2 7.0 61 3.6 WSW 13 20 7 11 1017.9 1018.0 0.0
25/04:00pm 14.5 10.9 6.6 59 3.8 SW 15 19 8 10 1017.8 1017.9 0.0
25/03:30pm 15.4 11.3 6.2 54 4.5 WSW 17 20 9 11 1017.7 1017.8 0.0
25/03:00pm 14.9 10.3 6.7 58 4.0 WSW 20 28 11 15 1017.7 1017.8 0.0
25/02:30pm 14.7 10.7 6.5 58 4.0 WSW 17 20 9 11 1017.7 1017.8 0.0
25/02:00pm 14.7 9.3 6.5 58 4.0 W 24 32 13 17 1017.8 1017.9 0.0
25/01:30pm 14.4 9.4 6.5 59 3.8 W 22 28 12 15 1018.0 1018.1 0.0
25/01:00pm 14.0 9.5 7.1 63 3.4 WSW 20 30 11 16 1018.2 1018.3 0.0
25/12:30pm 14.3 10.0 6.9 61 3.6 WSW 19 30 10 16 1018.4 1018.5 0.0
25/12:00pm 13.8 9.6 7.6 66 3.1 WSW 19 24 10 13 1018.9 1019.0 0.0
25/11:30am 13.0 8.3 7.7 70 2.6 WSW 22 30 12 16 1019.1 1019.2 0.0
25/11:00am 12.4 8.8 8.5 77 1.9 WSW 17 24 9 13 1019.3 1019.4 0.0
25/10:30am 12.0 7.9 8.8 81 1.6 W 20 26 11 14 1019.3 1019.4 0.0
25/10:00am 11.0 8.3 8.8 86 1.1 WNW 13 17 7 9 1019.0 1019.1 0.0
25/09:30am 9.7 7.8 8.9 95 0.4 NW 9 13 5 7 1018.9 1019.0 0.0
25/09:00am 7.8 5.9 7.7 99 0.0 N 7 9 4 5 1018.9 1019.0 0.4
25/08:30am 6.9 5.0 6.8 99 0.0 N 6 6 3 3 1018.7 1018.8 0.4
25/08:00am 5.7 4.7 5.6 99 0.0 CALM 0 0 0 0 1018.7 1018.8 0.4
25/07:30am 5.6 4.6 5.5 99 0.0 CALM 0 0 0 0 1018.4 1018.5 0.4
25/07:00am 6.1 4.8 6.0 99 0.0 W 2 6 1 3 1018.1 1018.2 0.4
25/06:30am 6.8 4.9 6.7 99 0.0 N 6 6 3 3 1017.8 1017.9 0.4
25/06:00am 7.1 5.1 7.0 99 0.0 N 7 9 4 5 1017.6 1017.7 0.4
25/05:30am 6.8 4.6 6.4 97 0.2 N 7 7 4 4 1017.6 1017.7 0.4
25/05:00am 7.4 5.3 6.8 96 0.3 N 7 9 4 5 1017.6 1017.7 0.4
25/04:30am 8.0 6.2 7.2 95 0.4 NNE 6 9 3 5 1017.8 1017.9 0.2
25/04:00am 7.4 5.0 6.8 96 0.3 NE 9 9 5 5 1017.9 1018.0 0.2
25/03:30am 6.9 4.9 6.2 95 0.3 NE 6 6 3 3 1017.9 1018.0 0.2
25/03:00am 6.5 4.2 5.6 94 0.4 NE 7 9 4 5 1018.2 1018.3 0.2
25/02:30am 7.0 4.8 6.1 94 0.4 ENE 7 9 4 5 1018.2 1018.3 0.2
25/02:00am 6.6 4.9 6.0 96 0.3 NE 4 9 2 5 1018.2 1018.3 0.2
25/01:30am 6.7 4.5 6.0 95 0.3 ENE 7 7 4 4 1018.2 1018.3 0.2
25/01:00am 8.0 6.6 7.2 95 0.4 S 4 6 2 3 1018.4 1018.5 0.2
25/12:30am 8.1 7.1 7.2 94 0.4 E 2 6 1 3 1018.3 1018.4 0.2
25/12:00am 8.6 7.5 7.1 90 0.7 SE 2 4 1 2 1018.7 1018.8 0.0
 
Date/Time
EST
Temp
°C
App
Temp
°C
Dew
Point
°C
Rel
Hum
%
Delta-T
°C
Wind Press
QNH
hPa
Press
MSL
hPa
Rain since
9am
mm
Dir  Spd
km/h
Gust
km/h
Spd
kts
Gust
kts
24/11:30pm 8.1 6.6 6.6 90 0.7 NE 4 6 2 3 1018.8 1018.9 0.0
24/11:00pm 9.4 7.9 6.7 83 1.3 E 4 6 2 3 1018.9 1019.0 0.0
24/10:30pm 9.6 8.3 6.1 79 1.6 ENE 2 2 1 1 1018.9 1019.0 0.0
24/10:00pm 9.8 8.5 5.8 76 1.8 ENE 2 2 1 1 1019.0 1019.1 0.0
24/09:30pm 9.4 7.4 6.1 80 1.5 NE 6 6 3 3 1018.9 1019.0 0.0
24/09:00pm 9.8 7.8 6.2 78 1.7 ENE 6 6 3 3 1019.0 1019.1 0.0
24/08:30pm 10.1 8.0 5.9 75 1.9 ENE 6 6 3 3 1018.9 1019.0 0.0
24/08:00pm 10.2 8.6 6.2 76 1.9 ENE 4 7 2 4 1018.9 1019.0 0.0
24/07:30pm 11.1 9.4 5.8 70 2.5 SSE 4 6 2 3 1018.9 1019.0 0.0
24/07:00pm 11.3 9.2 5.6 68 2.6 SSE 6 7 3 4 1018.7 1018.8 0.0
24/06:30pm 11.7 9.6 5.6 66 2.8 S 6 7 3 4 1018.7 1018.8 0.0
24/06:00pm 12.2 10.1 6.0 66 2.9 S 6 6 3 3 1018.6 1018.7 0.0
24/05:30pm 12.3 10.6 6.1 66 2.9 S 4 4 2 2 1018.4 1018.5 0.0
24/05:00pm 12.6 11.0 6.2 65 3.0 S 4 6 2 3 1018.4 1018.5 0.0
24/04:30pm 12.9 10.7 6.0 63 3.3 SW 7 9 4 5 1018.6 1018.7 0.0
24/04:00pm 13.2 10.5 5.6 60 3.6 WSW 9 11 5 6 1018.5 1018.6 0.0
24/03:30pm 13.5 10.4 5.7 59 3.7 WSW 11 15 6 8 1018.5 1018.6 0.0
24/03:00pm 14.4 11.8 6.3 58 3.9 W 9 13 5 7 1018.6 1018.7 0.0
24/02:30pm 14.7 13.1 6.5 58 4.0 WNW 4 9 2 5 1018.6 1018.7 0.0
24/02:00pm 13.9 11.8 6.0 59 3.8 W 6 9 3 5 1018.5 1018.6 0.0
24/01:30pm 13.7 12.4 6.1 60 3.6 NNW 2 7 1 4 1018.7 1018.8 0.0
24/01:00pm 13.4 11.3 6.7 64 3.2 S 7 11 4 6 1019.2 1019.3 0.0
24/12:30pm 13.0 11.2 7.2 68 2.8 SSE 6 9 3 5 1019.6 1019.7 0.0
24/12:00pm 11.7 10.2 6.8 72 2.3 SW 4 7 2 4 1020.0 1020.1 0.0
24/11:30am 11.0 9.3 7.7 80 1.6 SE 6 7 3 4 1020.1 1020.2 0.0
24/11:00am 10.1 8.8 10.1 100 0.0 ESE 7 9 4 5 1020.5 1020.6 0.0
24/10:30am 8.5 6.1 8.5 100 0.0 SSE 11 15 6 8 1020.6 1020.7 0.0

Other Formats:

Comma delimited format used in spreadsheet applications
http://www.bom.gov.au/fwo/IDV60801/IDV60801.94838.axf

JavaScript Object Notation format (JSON) in row-major order
http://www.bom.gov.au/fwo/IDV60801/IDV60801.94838.json